FLL weather

Fort Lauderdale Hollywood International Airport
Fort Lauderdale, Florida, United States

Public forecast

Using degrees Fahrenheit for public forecast. Weather courtesy of forecast.io.

METAR (pilot weather report)

Retrieved 2018/01/20 15:53 UTC (32 minutes ago):

KFLL 201553Z 09009KT 10SM FEW028 FEW034 BKN050 BKN250 22/16 A3024 RMK AO2 SLP241 T02220161

TAF (pilot weather forecast)

Retrieved 2018/01/20 12:35 UTC (4 hours ago):

TAF KFLL 201131Z 2012/2118 VRB05KT P6SM SCT035 FM201500 09010KT P6SM SCT035 BKN060 FM210000 05005KT P6SM SCT030 FM211400 09010KT P6SM SCT035 SCT060